createdAt,value
2018-11-05T00:00:42.342Z,10.50
2018-11-05T00:03:11.342Z,10.60
2018-11-05T00:05:40.455Z,10.60
2018-11-05T00:08:09.451Z,10.60
2018-11-05T00:10:53.477Z,10.50
2018-11-05T00:13:22.582Z,10.50
2018-11-05T00:15:51.504Z,10.50
2018-11-05T00:18:20.666Z,10.50
2018-11-05T00:20:49.638Z,10.50
2018-11-05T00:23:18.564Z,10.50
2018-11-05T00:25:47.516Z,10.50
2018-11-05T00:28:16.457Z,10.50
2018-11-05T00:30:45.384Z,10.50
2018-11-05T00:33:14.376Z,10.50
2018-11-05T00:35:43.371Z,10.50
2018-11-05T00:38:12.319Z,10.50
2018-11-05T00:40:41.483Z,10.50
2018-11-05T00:43:10.510Z,10.50
2018-11-05T00:45:39.591Z,10.50
2018-11-05T00:48:08.439Z,10.50
2018-11-05T00:50:37.393Z,10.60
2018-11-05T00:53:06.567Z,10.60
2018-11-05T00:55:35.729Z,10.60
2018-11-05T00:58:04.856Z,10.60
2018-11-05T01:00:33.807Z,10.60
2018-11-05T01:03:02.936Z,10.60
2018-11-05T01:05:31.897Z,10.60
2018-11-05T01:08:00.887Z,10.60
2018-11-05T01:10:29.872Z,10.50
2018-11-05T01:12:58.846Z,10.50
2018-11-05T01:15:28.075Z,10.60
2018-11-05T01:17:57.015Z,10.60
2018-11-05T01:20:25.964Z,10.60
2018-11-05T01:22:55.079Z,10.60
2018-11-05T01:25:24.036Z,10.60
2018-11-05T01:27:52.978Z,10.50
2018-11-05T01:30:21.928Z,10.50
2018-11-05T01:32:50.874Z,10.50
2018-11-05T01:35:19.813Z,10.50
2018-11-05T01:37:49.587Z,10.50
2018-11-05T01:40:18.513Z,10.60
2018-11-05T01:42:47.446Z,10.60
2018-11-05T01:45:16.411Z,10.60
2018-11-05T01:47:45.419Z,10.60
2018-11-05T01:50:15.820Z,10.50
2018-11-05T01:52:45.107Z,10.60
2018-11-05T01:55:14.166Z,10.50
2018-11-05T01:57:43.220Z,10.50
2018-11-05T02:00:14.877Z,10.50
2018-11-05T02:02:44.650Z,10.50
2018-11-05T02:05:13.631Z,10.50
2018-11-05T02:07:43.965Z,10.60
2018-11-05T02:10:15.280Z,10.60
2018-11-05T02:12:44.181Z,10.60
2018-11-05T02:15:13.296Z,10.60
2018-11-05T02:17:43.451Z,10.60
2018-11-05T02:20:13.365Z,10.60
2018-11-05T02:22:42.370Z,10.60
2018-11-05T02:25:12.471Z,10.60
2018-11-05T02:27:41.992Z,10.50
2018-11-05T02:30:14.563Z,10.50
2018-11-05T02:32:43.518Z,10.60
2018-11-05T02:35:13.356Z,10.60
2018-11-05T02:37:43.183Z,10.50
2018-11-05T02:40:15.476Z,10.50
2018-11-05T02:42:44.885Z,10.50
2018-11-05T02:45:14.961Z,10.50
2018-11-05T02:47:43.893Z,10.50
2018-11-05T02:50:13.576Z,10.50
2018-11-05T02:52:43.652Z,10.50
2018-11-05T02:55:12.596Z,10.50
2018-11-05T02:57:41.549Z,10.50
2018-11-05T03:00:12.960Z,10.50
2018-11-05T03:02:42.202Z,10.50
2018-11-05T03:05:12.889Z,10.50
2018-11-05T03:07:42.220Z,10.50
2018-11-05T03:10:11.825Z,10.40
2018-11-05T03:12:41.548Z,10.40
2018-11-05T03:15:12.617Z,10.40
2018-11-05T03:17:41.633Z,10.40
2018-11-05T03:20:11.887Z,10.40
2018-11-05T03:22:41.398Z,10.40
2018-11-05T03:25:10.515Z,10.30
2018-11-05T03:27:39.804Z,10.30
2018-11-05T03:30:10.555Z,10.30
2018-11-05T03:32:39.529Z,10.30
2018-11-05T03:35:10.711Z,10.30
2018-11-05T03:37:40.447Z,10.30
2018-11-05T03:40:10.332Z,10.30
2018-11-05T03:42:39.848Z,10.20
2018-11-05T03:45:11.579Z,10.20
2018-11-05T03:47:40.569Z,10.20
2018-11-05T03:50:12.604Z,10.20
2018-11-05T03:52:41.831Z,10.20
2018-11-05T03:55:10.787Z,10.20
2018-11-05T03:57:40.298Z,10.20
2018-11-05T04:00:10.992Z,10.20
2018-11-05T04:02:39.983Z,10.20
2018-11-05T04:05:09.416Z,10.20
2018-11-05T04:07:38.880Z,10.20
2018-11-05T04:10:08.672Z,10.10
2018-11-05T04:12:37.640Z,10.10
2018-11-05T04:15:06.818Z,10.10
2018-11-05T04:17:35.720Z,10.20
2018-11-05T04:20:05.692Z,10.20
2018-11-05T04:22:34.766Z,10.20
2018-11-05T04:25:03.809Z,10.20
2018-11-05T04:27:32.789Z,10.20
2018-11-05T04:30:01.741Z,10.20
2018-11-05T04:32:30.719Z,10.20
2018-11-05T04:34:59.656Z,10.20
2018-11-05T04:37:28.656Z,10.10
2018-11-05T04:39:58.016Z,10.10
2018-11-05T04:42:27.074Z,10.20
2018-11-05T04:44:56.049Z,10.20
2018-11-05T04:47:25.011Z,10.20
2018-11-05T04:49:54.419Z,10.20
2018-11-05T04:52:23.379Z,10.20
2018-11-05T04:54:52.295Z,10.20
2018-11-05T04:57:21.466Z,10.20
2018-11-05T04:59:50.486Z,10.20
2018-11-05T05:02:19.931Z,10.10
2018-11-05T05:04:49.066Z,10.10
2018-11-05T05:07:18.102Z,10.10
2018-11-05T05:09:47.419Z,10.10
2018-11-05T05:12:16.391Z,10.10
2018-11-05T05:14:45.683Z,10.10
2018-11-05T05:17:14.763Z,10.10
2018-11-05T05:19:43.691Z,10.10
2018-11-05T05:22:12.668Z,10.10
2018-11-05T05:24:41.696Z,10.10
2018-11-05T05:27:10.831Z,10.10
2018-11-05T05:29:39.764Z,10.00
2018-11-05T05:32:08.683Z,10.00
2018-11-05T05:34:37.815Z,10.10
2018-11-05T05:37:06.805Z,10.00
2018-11-05T05:39:36.003Z,10.10
2018-11-05T05:42:05.263Z,10.00
2018-11-05T05:44:34.408Z,10.00
2018-11-05T05:47:03.525Z,10.10
2018-11-05T05:49:32.444Z,10.00
2018-11-05T05:52:01.515Z,10.00
2018-11-05T05:54:30.524Z,10.00
2018-11-05T05:56:59.454Z,10.00
2018-11-05T05:59:28.407Z,10.00
2018-11-05T06:01:57.403Z,10.00
2018-11-05T06:04:26.479Z,10.00
2018-11-05T06:06:55.475Z,10.10
2018-11-05T06:09:24.733Z,10.00
2018-11-05T06:11:54.967Z,10.00
2018-11-05T06:14:25.268Z,10.00
2018-11-05T06:16:54.432Z,10.00
2018-11-05T06:19:23.831Z,10.00
2018-11-05T06:21:59.843Z,10.00
2018-11-05T06:24:29.274Z,10.00
2018-11-05T06:26:58.403Z,10.00
2018-11-05T06:29:27.560Z,10.00
2018-11-05T06:32:16.473Z,10.00
2018-11-05T06:34:47.002Z,10.00
2018-11-05T06:37:15.959Z,10.00
2018-11-05T06:39:49.057Z,10.00
2018-11-05T06:42:18.115Z,10.00
2018-11-05T06:44:47.228Z,10.00
2018-11-05T06:47:16.511Z,9.90
2018-11-05T06:49:45.454Z,9.90
2018-11-05T06:52:14.472Z,10.00
2018-11-05T06:54:43.391Z,10.00
2018-11-05T06:57:12.317Z,10.00
2018-11-05T06:59:41.264Z,10.00
2018-11-05T07:02:10.269Z,10.10
2018-11-05T07:04:39.261Z,10.10
2018-11-05T07:07:08.307Z,10.10
2018-11-05T07:09:37.318Z,10.10
2018-11-05T07:12:06.274Z,10.20
2018-11-05T07:14:35.215Z,10.20
2018-11-05T07:17:04.170Z,10.30
2018-11-05T07:19:33.109Z,10.30
2018-11-05T07:22:02.040Z,10.30
2018-11-05T07:24:30.963Z,10.30
2018-11-05T07:26:59.932Z,10.30
2018-11-05T07:29:28.900Z,10.30
2018-11-05T07:31:57.868Z,10.30
2018-11-05T07:34:26.822Z,10.30
2018-11-05T07:36:55.839Z,10.30
2018-11-05T07:39:25.080Z,10.30
2018-11-05T07:41:54.020Z,10.40
2018-11-05T07:44:23.079Z,10.30
2018-11-05T07:46:52.010Z,10.40
2018-11-05T07:49:21.033Z,10.40
2018-11-05T07:51:50.096Z,10.40
2018-11-05T07:54:18.999Z,10.40
2018-11-05T07:56:48.094Z,10.40
2018-11-05T07:59:17.044Z,10.30
2018-11-05T08:01:46.061Z,10.30
2018-11-05T08:04:15.047Z,10.40
2018-11-05T08:06:46.073Z,10.40
2018-11-05T08:09:15.033Z,10.40
2018-11-05T08:11:44.152Z,10.30
2018-11-05T08:14:13.233Z,10.30
2018-11-05T08:16:42.212Z,10.30
2018-11-05T08:19:11.132Z,10.30
2018-11-05T08:21:40.147Z,10.30
2018-11-05T08:24:09.085Z,10.30
2018-11-05T08:26:38.141Z,10.30
2018-11-05T08:29:07.262Z,10.30
2018-11-05T08:31:36.198Z,10.40
2018-11-05T08:34:05.231Z,10.50
2018-11-05T08:36:35.310Z,10.50
2018-11-05T08:39:08.427Z,10.60
2018-11-05T08:41:37.385Z,10.60
2018-11-05T08:44:07.197Z,10.70
2018-11-05T08:46:36.462Z,10.70
2018-11-05T08:49:06.050Z,10.70
2018-11-05T08:51:35.487Z,10.80
2018-11-05T08:54:05.253Z,10.80
2018-11-05T08:56:34.356Z,10.80
2018-11-05T08:59:03.697Z,10.90
2018-11-05T09:01:33.631Z,10.90
2018-11-05T09:04:02.797Z,10.90
2018-11-05T09:06:32.552Z,11.00
2018-11-05T09:09:01.531Z,11.10
2018-11-05T09:11:30.734Z,11.10
2018-11-05T09:13:59.528Z,11.10
2018-11-05T09:16:28.493Z,11.20
2018-11-05T09:18:57.418Z,11.10
2018-11-05T09:21:26.454Z,11.20
2018-11-05T09:23:55.408Z,11.20
2018-11-05T09:26:24.391Z,11.20
2018-11-05T09:28:53.331Z,11.20
2018-11-05T09:31:22.290Z,11.30
2018-11-05T09:33:51.244Z,11.30
2018-11-05T09:36:20.187Z,11.30
2018-11-05T09:38:49.584Z,11.30
2018-11-05T09:41:18.578Z,11.40
2018-11-05T09:43:47.949Z,11.40
2018-11-05T09:46:17.156Z,11.40
2018-11-05T09:48:48.917Z,11.50
2018-11-05T09:51:18.431Z,11.50
2018-11-05T09:53:52.765Z,11.60
2018-11-05T09:56:23.762Z,11.70
2018-11-05T09:58:53.100Z,11.70
2018-11-05T10:01:22.158Z,11.80
2018-11-05T10:03:54.290Z,11.80
2018-11-05T10:06:23.741Z,11.70
2018-11-05T10:08:52.944Z,11.70
2018-11-05T10:11:21.923Z,11.70
2018-11-05T10:13:50.930Z,11.70
2018-11-05T10:16:20.037Z,11.70
2018-11-05T10:18:50.759Z,11.70
2018-11-05T10:21:20.339Z,11.70
2018-11-05T10:23:49.384Z,11.70
2018-11-05T10:26:18.419Z,11.80
2018-11-05T10:28:47.343Z,11.90
2018-11-05T10:31:21.879Z,12.10
2018-11-05T10:33:51.805Z,12.40
2018-11-05T10:36:21.220Z,12.70
2018-11-05T10:38:50.245Z,13.00
2018-11-05T10:41:19.671Z,13.10
2018-11-05T10:43:48.898Z,13.10
2018-11-05T10:46:18.653Z,13.20
2018-11-05T10:48:48.227Z,13.40
2018-11-05T10:51:17.395Z,13.50
2018-11-05T10:53:46.757Z,13.60
2018-11-05T10:56:15.729Z,13.60
2018-11-05T10:58:44.855Z,13.60
2018-11-05T11:01:16.734Z,13.90
2018-11-05T11:03:51.103Z,14.40
2018-11-05T11:06:20.276Z,15.10
2018-11-05T11:08:49.372Z,15.90
2018-11-05T11:11:18.419Z,16.70
2018-11-05T11:13:47.486Z,17.50
2018-11-05T11:16:16.424Z,18.00
2018-11-05T11:18:45.732Z,18.00
2018-11-05T11:21:14.727Z,17.70
2018-11-05T11:23:43.774Z,17.40
2018-11-05T11:26:12.784Z,17.20
2018-11-05T11:28:41.799Z,16.80
2018-11-05T11:31:10.750Z,16.50
2018-11-05T11:33:39.928Z,16.30
2018-11-05T11:36:09.084Z,16.00
2018-11-05T11:38:38.218Z,15.80
2018-11-05T11:41:07.224Z,15.70
2018-11-05T11:43:36.200Z,15.60
2018-11-05T11:46:05.747Z,15.60
2018-11-05T11:48:35.857Z,15.80
2018-11-05T11:51:05.161Z,15.90
2018-11-05T11:53:34.483Z,16.00
2018-11-05T11:56:04.312Z,16.10
2018-11-05T11:58:33.329Z,16.40
2018-11-05T12:01:02.405Z,16.60
2018-11-05T12:03:31.427Z,16.70
2018-11-05T12:06:00.408Z,16.90
2018-11-05T12:08:29.392Z,17.00
2018-11-05T12:10:58.387Z,16.90
2018-11-05T12:13:27.387Z,16.70
2018-11-05T12:15:56.347Z,16.50
2018-11-05T12:18:25.296Z,16.40
2018-11-05T12:20:54.411Z,16.40
2018-11-05T12:23:23.351Z,16.40
2018-11-05T12:25:52.345Z,16.40
2018-11-05T12:28:21.297Z,16.20
2018-11-05T12:30:50.212Z,16.50
2018-11-05T12:33:19.211Z,17.20
2018-11-05T12:35:48.178Z,18.30
2018-11-05T12:38:17.428Z,19.20
2018-11-05T12:40:47.326Z,20.10
2018-11-05T12:43:16.361Z,20.90
2018-11-05T12:45:45.319Z,21.60
2018-11-05T12:48:14.482Z,22.30
2018-11-05T12:50:44.158Z,22.80
2018-11-05T12:53:13.269Z,23.40
2018-11-05T12:55:42.706Z,23.80
2018-11-05T12:58:12.761Z,24.10
2018-11-05T13:00:41.789Z,24.30
2018-11-05T13:03:10.931Z,24.40
2018-11-05T13:05:43.651Z,24.60
2018-11-05T13:08:12.684Z,24.70
2018-11-05T13:10:41.650Z,24.60
2018-11-05T13:13:10.581Z,24.40
2018-11-05T13:15:39.556Z,24.40
2018-11-05T13:18:08.502Z,24.30
2018-11-05T13:20:37.567Z,24.20
2018-11-05T13:23:06.709Z,23.80
2018-11-05T13:25:35.665Z,23.00
2018-11-05T13:28:04.631Z,22.20
2018-11-05T13:30:33.625Z,21.30
2018-11-05T13:33:03.248Z,20.60
2018-11-05T13:35:32.193Z,19.80
2018-11-05T13:38:01.704Z,19.20
2018-11-05T13:40:30.214Z,18.70
2018-11-05T13:42:59.209Z,18.20
2018-11-05T13:45:28.539Z,17.80
2018-11-05T13:47:57.912Z,17.40
2018-11-05T13:50:26.583Z,17.00
2018-11-05T13:52:55.349Z,16.80
2018-11-05T13:55:24.291Z,16.50
2018-11-05T13:57:53.296Z,16.30
2018-11-05T14:00:22.337Z,16.10
2018-11-05T14:02:51.296Z,15.90
2018-11-05T14:05:20.311Z,15.80
2018-11-05T14:07:49.289Z,15.70
2018-11-05T14:10:20.191Z,15.60
2018-11-05T14:12:49.593Z,15.60
2018-11-05T14:15:18.628Z,15.50
2018-11-05T14:17:47.784Z,15.40
2018-11-05T14:20:18.035Z,15.30
2018-11-05T14:22:47.180Z,15.20
2018-11-05T14:25:17.362Z,15.10
2018-11-05T14:27:47.728Z,15.00
2018-11-05T14:30:16.796Z,15.00
2018-11-05T14:32:46.828Z,14.90
2018-11-05T14:35:15.923Z,14.80
2018-11-05T14:37:44.935Z,14.80
2018-11-05T14:40:16.045Z,14.70
2018-11-05T14:42:45.118Z,14.60
2018-11-05T14:45:15.263Z,14.60
2018-11-05T14:47:45.097Z,14.50
2018-11-05T14:50:15.954Z,14.50
2018-11-05T14:52:44.956Z,14.40
2018-11-05T14:55:15.613Z,14.30
2018-11-05T14:57:45.515Z,14.30
2018-11-05T15:00:18.787Z,14.30
2018-11-05T15:02:48.388Z,14.20
2018-11-05T15:05:17.582Z,14.10
2018-11-05T15:07:47.444Z,14.10
2018-11-05T15:10:19.864Z,14.10
2018-11-05T15:12:48.881Z,14.00
2018-11-05T15:15:18.476Z,14.00
2018-11-05T15:17:47.668Z,13.90
2018-11-05T15:20:18.166Z,13.90
2018-11-05T15:22:47.013Z,13.80
2018-11-05T15:25:16.445Z,13.80
2018-11-05T15:27:45.385Z,13.60
2018-11-05T15:30:16.902Z,13.60
2018-11-05T15:32:46.026Z,13.50
2018-11-05T15:35:15.153Z,13.40
2018-11-05T15:37:44.442Z,13.40
2018-11-05T15:40:15.585Z,13.20
2018-11-05T15:42:44.595Z,13.20
2018-11-05T15:45:14.723Z,13.10
2018-11-05T15:47:43.807Z,13.00
2018-11-05T15:50:14.090Z,12.90
2018-11-05T15:52:43.698Z,12.80
2018-11-05T15:55:12.649Z,12.70
2018-11-05T15:57:41.766Z,12.60
2018-11-05T16:00:16.320Z,12.60
2018-11-05T16:02:47.097Z,12.50
2018-11-05T16:05:16.145Z,12.40
2018-11-05T16:07:45.562Z,12.30
2018-11-05T16:10:14.685Z,12.30
2018-11-05T16:12:43.634Z,12.20
2018-11-05T16:15:13.457Z,12.10
2018-11-05T16:17:42.600Z,12.00
2018-11-05T16:20:17.544Z,11.90
2018-11-05T16:22:47.321Z,11.90
2018-11-05T16:25:16.248Z,11.80
2018-11-05T16:27:45.317Z,11.80
2018-11-05T16:30:15.812Z,11.60
2018-11-05T16:32:45.237Z,11.60
2018-11-05T16:35:20.218Z,11.50
2018-11-05T16:37:49.283Z,11.50
2018-11-05T16:40:19.088Z,11.40
2018-11-05T16:42:49.752Z,11.40
2018-11-05T16:45:18.808Z,11.30
2018-11-05T16:47:48.256Z,11.30
2018-11-05T16:50:22.042Z,11.20
2018-11-05T16:52:51.230Z,11.20
2018-11-05T16:55:20.181Z,11.10
2018-11-05T16:57:49.207Z,11.10
2018-11-05T17:00:18.323Z,11.00
2018-11-05T17:02:47.947Z,11.00
2018-11-05T17:05:17.333Z,10.90
2018-11-05T17:07:46.334Z,10.90
2018-11-05T17:10:15.634Z,10.90
2018-11-05T17:13:00.733Z,10.90
2018-11-05T17:15:30.476Z,10.90
2018-11-05T17:17:59.431Z,10.80
2018-11-05T17:20:28.438Z,10.70
2018-11-05T17:22:57.924Z,10.70
2018-11-05T17:25:26.887Z,10.70
2018-11-05T17:27:58.408Z,10.60
2018-11-05T17:30:27.336Z,10.60
2018-11-05T17:32:56.939Z,10.50
2018-11-05T17:35:25.938Z,10.50
2018-11-05T17:37:54.894Z,10.40
2018-11-05T17:40:23.865Z,10.40
2018-11-05T17:42:52.849Z,10.40
2018-11-05T17:45:21.821Z,10.40
2018-11-05T17:47:51.282Z,10.30
2018-11-05T17:50:21.524Z,10.20
2018-11-05T17:52:50.571Z,10.20
2018-11-05T17:55:19.628Z,10.20
2018-11-05T17:57:49.297Z,10.20
2018-11-05T18:00:20.453Z,10.10
2018-11-05T18:02:49.466Z,10.10
2018-11-05T18:05:18.771Z,10.00
2018-11-05T18:07:48.052Z,10.00
2018-11-05T18:10:17.172Z,10.00
2018-11-05T18:12:46.165Z,9.90
2018-11-05T18:15:15.325Z,9.90
2018-11-05T18:17:45.275Z,9.90
2018-11-05T18:20:15.680Z,9.90
2018-11-05T18:22:44.620Z,9.80
2018-11-05T18:25:15.922Z,9.80
2018-11-05T18:27:45.075Z,9.80
2018-11-05T18:30:14.976Z,9.80
2018-11-05T18:32:43.973Z,9.80
2018-11-05T18:35:14.011Z,9.80
2018-11-05T18:37:44.670Z,9.70
2018-11-05T18:40:14.665Z,9.70
2018-11-05T18:42:44.535Z,9.70
2018-11-05T18:45:13.469Z,9.60
2018-11-05T18:47:42.500Z,9.60
2018-11-05T18:50:13.320Z,9.50
2018-11-05T18:52:42.937Z,9.50
2018-11-05T18:55:13.324Z,9.50
2018-11-05T18:57:42.261Z,9.50
2018-11-05T19:00:17.974Z,9.50
2018-11-05T19:02:47.401Z,9.40
2018-11-05T19:05:16.940Z,9.40
2018-11-05T19:07:46.093Z,9.40
2018-11-05T19:10:15.056Z,9.40
2018-11-05T19:12:43.957Z,9.30
2018-11-05T19:15:14.150Z,9.30
2018-11-05T19:17:44.468Z,9.30
2018-11-05T19:20:13.548Z,9.30
2018-11-05T19:22:43.168Z,9.30
2018-11-05T19:25:13.350Z,9.20
2018-11-05T19:27:42.697Z,9.20
2018-11-05T19:30:16.781Z,9.20
2018-11-05T19:32:46.471Z,9.20
2018-11-05T19:35:15.766Z,9.20
2018-11-05T19:37:45.221Z,9.10
2018-11-05T19:40:15.615Z,9.10
2018-11-05T19:42:45.617Z,9.10
2018-11-05T19:45:15.347Z,9.00
2018-11-05T19:47:43.546Z,9.00
2018-11-05T19:50:13.552Z,9.00
2018-11-05T19:52:42.677Z,9.00
2018-11-05T19:55:12.310Z,9.00
2018-11-05T19:57:41.507Z,9.00
2018-11-05T20:00:15.904Z,8.90
2018-11-05T20:02:44.138Z,8.80
2018-11-05T20:05:12.945Z,8.80
2018-11-05T20:07:41.936Z,8.80
2018-11-05T20:10:11.990Z,8.80
2018-11-05T20:12:41.488Z,8.80
2018-11-05T20:15:10.729Z,8.80
2018-11-05T20:17:40.663Z,8.80
2018-11-05T20:20:11.204Z,8.80
2018-11-05T20:22:41.418Z,8.80
2018-11-05T20:25:10.957Z,8.70
2018-11-05T20:27:40.617Z,8.80
2018-11-05T20:30:13.424Z,8.80
2018-11-05T20:32:43.040Z,8.80
2018-11-05T20:35:11.800Z,8.80
2018-11-05T20:37:40.827Z,8.70
2018-11-05T20:40:12.490Z,8.70
2018-11-05T20:42:43.361Z,8.80
2018-11-05T20:45:12.387Z,8.70
2018-11-05T20:47:41.652Z,8.70
2018-11-05T20:50:11.418Z,8.70
2018-11-05T20:52:40.585Z,8.70
2018-11-05T20:55:10.918Z,8.60
2018-11-05T20:57:40.463Z,8.60
2018-11-05T21:00:11.304Z,8.60
2018-11-05T21:02:41.032Z,8.60
2018-11-05T21:05:10.128Z,8.60
2018-11-05T21:07:40.294Z,8.60
2018-11-05T21:10:10.857Z,8.60
2018-11-05T21:12:40.639Z,8.60
2018-11-05T21:15:15.353Z,8.60
2018-11-05T21:17:45.656Z,8.60
2018-11-05T21:20:15.287Z,8.60
2018-11-05T21:22:45.296Z,8.60
2018-11-05T21:25:14.352Z,8.60
2018-11-05T21:27:44.021Z,8.60
2018-11-05T21:30:15.920Z,8.60
2018-11-05T21:32:44.968Z,8.60
2018-11-05T21:35:15.603Z,8.60
2018-11-05T21:37:44.823Z,8.60
2018-11-05T21:40:15.377Z,8.60
2018-11-05T21:42:44.633Z,8.60
2018-11-05T21:45:15.460Z,8.60
2018-11-05T21:47:45.572Z,8.60
2018-11-05T21:50:16.033Z,8.60
2018-11-05T21:52:45.472Z,8.60
2018-11-05T21:55:15.642Z,8.60
2018-11-05T21:57:46.379Z,8.60
2018-11-05T22:00:17.829Z,8.60
2018-11-05T22:02:52.496Z,8.50
2018-11-05T22:05:24.383Z,8.50
2018-11-05T22:07:54.245Z,8.50
2018-11-05T22:10:23.648Z,8.50
2018-11-05T22:12:53.034Z,8.50
2018-11-05T22:15:22.223Z,8.50
2018-11-05T22:17:51.958Z,8.50
2018-11-05T22:20:21.456Z,8.50
2018-11-05T22:22:50.795Z,8.50
2018-11-05T22:25:19.807Z,8.50
2018-11-05T22:27:48.727Z,8.40
2018-11-05T22:30:18.050Z,8.40
2018-11-05T22:32:47.308Z,8.40
2018-11-05T22:35:16.288Z,8.40
2018-11-05T22:37:45.280Z,8.30
2018-11-05T22:40:15.197Z,8.30
2018-11-05T22:42:44.669Z,8.30
2018-11-05T22:45:14.648Z,8.30
2018-11-05T22:47:44.403Z,8.20
2018-11-05T22:50:13.452Z,8.20
2018-11-05T22:52:42.821Z,8.10
2018-11-05T22:55:11.819Z,8.10
2018-11-05T22:57:40.819Z,8.10
2018-11-05T23:02:20.313Z,8.00
2018-11-05T23:04:49.604Z,8.00
2018-11-05T23:07:18.576Z,8.00
2018-11-05T23:09:47.589Z,7.90
2018-11-05T23:12:16.588Z,7.90
2018-11-05T23:14:45.568Z,7.90
2018-11-05T23:17:15.028Z,7.90
2018-11-05T23:19:43.988Z,7.90
2018-11-05T23:22:12.898Z,7.80
2018-11-05T23:24:41.842Z,7.80
2018-11-05T23:27:10.778Z,7.80
2018-11-05T23:29:39.712Z,7.90
2018-11-05T23:32:08.681Z,7.90
2018-11-05T23:34:37.616Z,7.90
2018-11-05T23:37:06.815Z,7.80
2018-11-05T23:39:35.811Z,7.90
2018-11-05T23:42:04.757Z,7.90
2018-11-05T23:44:34.242Z,7.90
2018-11-05T23:47:03.200Z,7.90
2018-11-05T23:49:32.519Z,7.90
2018-11-05T23:52:01.439Z,7.90
2018-11-05T23:54:30.356Z,8.00
2018-11-05T23:56:59.341Z,8.00
2018-11-05T23:59:28.436Z,8.10
